sensor_id;sensor_type;location;lat;lon;timestamp;P1;durP1;ratioP1;P2;durP2;ratioP2
8632;SDS011;4354;49.832;10.746;2022-11-11T00:01:14;22.50;;;12.40;;
8632;SDS011;4354;49.832;10.746;2022-11-11T00:03:42;17.77;;;12.47;;
8632;SDS011;4354;49.832;10.746;2022-11-11T00:06:10;22.80;;;11.33;;
8632;SDS011;4354;49.832;10.746;2022-11-11T00:08:38;24.03;;;11.60;;
8632;SDS011;4354;49.832;10.746;2022-11-11T00:11:06;17.87;;;10.57;;
8632;SDS011;4354;49.832;10.746;2022-11-11T00:13:35;20.20;;;12.33;;
8632;SDS011;4354;49.832;10.746;2022-11-11T00:16:07;16.47;;;10.23;;
8632;SDS011;4354;49.832;10.746;2022-11-11T00:18:36;21.23;;;11.43;;
8632;SDS011;4354;49.832;10.746;2022-11-11T00:21:22;35.53;;;12.00;;
8632;SDS011;4354;49.832;10.746;2022-11-11T00:27:02;18.83;;;10.97;;
8632;SDS011;4354;49.832;10.746;2022-11-11T00:29:30;25.53;;;12.10;;
8632;SDS011;4354;49.832;10.746;2022-11-11T00:31:57;31.67;;;16.00;;
8632;SDS011;4354;49.832;10.746;2022-11-11T00:34:43;23.37;;;15.97;;
8632;SDS011;4354;49.832;10.746;2022-11-11T00:37:31;21.53;;;14.83;;
8632;SDS011;4354;49.832;10.746;2022-11-11T00:39:58;46.53;;;17.13;;
8632;SDS011;4354;49.832;10.746;2022-11-11T00:42:25;22.90;;;14.97;;
8632;SDS011;4354;49.832;10.746;2022-11-11T00:44:52;25.93;;;14.70;;
8632;SDS011;4354;49.832;10.746;2022-11-11T00:47:19;19.40;;;14.07;;
8632;SDS011;4354;49.832;10.746;2022-11-11T00:50:05;29.83;;;14.67;;
8632;SDS011;4354;49.832;10.746;2022-11-11T00:52:55;21.67;;;13.33;;
8632;SDS011;4354;49.832;10.746;2022-11-11T00:55:21;54.97;;;14.97;;
8632;SDS011;4354;49.832;10.746;2022-11-11T00:57:48;54.77;;;14.47;;
8632;SDS011;4354;49.832;10.746;2022-11-11T01:00:15;55.43;;;15.00;;
8632;SDS011;4354;49.832;10.746;2022-11-11T01:02:44;34.83;;;13.77;;
8632;SDS011;4354;49.832;10.746;2022-11-11T01:05:11;42.67;;;14.63;;
8632;SDS011;4354;49.832;10.746;2022-11-11T01:07:38;32.33;;;14.97;;
8632;SDS011;4354;49.832;10.746;2022-11-11T01:10:05;28.30;;;14.57;;
8632;SDS011;4354;49.832;10.746;2022-11-11T01:12:32;32.40;;;14.07;;
8632;SDS011;4354;49.832;10.746;2022-11-11T01:14:59;30.53;;;13.70;;
8632;SDS011;4354;49.832;10.746;2022-11-11T01:17:27;15.60;;;12.03;;
8632;SDS011;4354;49.832;10.746;2022-11-11T01:19:54;20.37;;;11.27;;
8632;SDS011;4354;49.832;10.746;2022-11-11T01:22:20;24.00;;;10.27;;
8632;SDS011;4354;49.832;10.746;2022-11-11T01:24:47;22.33;;;9.33;;
8632;SDS011;4354;49.832;10.746;2022-11-11T01:27:14;23.37;;;8.53;;
8632;SDS011;4354;49.832;10.746;2022-11-11T01:29:41;28.27;;;9.93;;
8632;SDS011;4354;49.832;10.746;2022-11-11T01:32:07;12.03;;;8.37;;
8632;SDS011;4354;49.832;10.746;2022-11-11T01:34:34;16.87;;;9.07;;
8632;SDS011;4354;49.832;10.746;2022-11-11T01:37:01;10.57;;;7.33;;
8632;SDS011;4354;49.832;10.746;2022-11-11T01:39:28;16.27;;;7.83;;
8632;SDS011;4354;49.832;10.746;2022-11-11T01:41:55;15.23;;;7.63;;
8632;SDS011;4354;49.832;10.746;2022-11-11T01:44:43;15.07;;;7.67;;
8632;SDS011;4354;49.832;10.746;2022-11-11T01:47:12;14.53;;;8.83;;
8632;SDS011;4354;49.832;10.746;2022-11-11T01:52:31;26.00;;;8.73;;
8632;SDS011;4354;49.832;10.746;2022-11-11T01:55:04;15.43;;;8.40;;
8632;SDS011;4354;49.832;10.746;2022-11-11T02:00:19;13.00;;;7.33;;
8632;SDS011;4354;49.832;10.746;2022-11-11T02:02:51;9.50;;;7.40;;
8632;SDS011;4354;49.832;10.746;2022-11-11T02:05:23;17.53;;;6.67;;
8632;SDS011;4354;49.832;10.746;2022-11-11T02:08:10;15.40;;;6.77;;
8632;SDS011;4354;49.832;10.746;2022-11-11T02:11:14;7.60;;;6.20;;
8632;SDS011;4354;49.832;10.746;2022-11-11T02:14:06;7.07;;;6.00;;
8632;SDS011;4354;49.832;10.746;2022-11-11T02:16:52;12.13;;;6.40;;
8632;SDS011;4354;49.832;10.746;2022-11-11T02:19:22;12.03;;;5.87;;
8632;SDS011;4354;49.832;10.746;2022-11-11T02:22:00;10.07;;;5.90;;
8632;SDS011;4354;49.832;10.746;2022-11-11T02:24:30;14.70;;;5.83;;
8632;SDS011;4354;49.832;10.746;2022-11-11T02:26:57;8.83;;;6.07;;
8632;SDS011;4354;49.832;10.746;2022-11-11T02:29:27;9.67;;;6.30;;
8632;SDS011;4354;49.832;10.746;2022-11-11T02:31:55;8.47;;;5.83;;
8632;SDS011;4354;49.832;10.746;2022-11-11T02:34:30;11.40;;;5.77;;
8632;SDS011;4354;49.832;10.746;2022-11-11T02:36:57;6.83;;;5.33;;
8632;SDS011;4354;49.832;10.746;2022-11-11T02:39:26;16.30;;;5.43;;
8632;SDS011;4354;49.832;10.746;2022-11-11T02:42:13;7.77;;;5.77;;
8632;SDS011;4354;49.832;10.746;2022-11-11T02:44:41;8.00;;;5.73;;
8632;SDS011;4354;49.832;10.746;2022-11-11T02:47:08;6.53;;;5.93;;
8632;SDS011;4354;49.832;10.746;2022-11-11T02:49:35;9.67;;;5.83;;
8632;SDS011;4354;49.832;10.746;2022-11-11T02:52:02;17.47;;;6.57;;
8632;SDS011;4354;49.832;10.746;2022-11-11T02:54:29;12.10;;;6.57;;
8632;SDS011;4354;49.832;10.746;2022-11-11T02:56:56;15.03;;;6.47;;
8632;SDS011;4354;49.832;10.746;2022-11-11T02:59:35;10.63;;;5.83;;
8632;SDS011;4354;49.832;10.746;2022-11-11T03:02:04;11.27;;;5.83;;
8632;SDS011;4354;49.832;10.746;2022-11-11T03:04:32;17.63;;;5.90;;
8632;SDS011;4354;49.832;10.746;2022-11-11T03:07:00;18.07;;;6.80;;
8632;SDS011;4354;49.832;10.746;2022-11-11T03:09:26;7.73;;;5.97;;
8632;SDS011;4354;49.832;10.746;2022-11-11T03:11:54;24.27;;;7.10;;
8632;SDS011;4354;49.832;10.746;2022-11-11T03:14:20;30.70;;;8.20;;
8632;SDS011;4354;49.832;10.746;2022-11-11T03:16:47;24.93;;;7.33;;
8632;SDS011;4354;49.832;10.746;2022-11-11T03:19:33;16.37;;;7.37;;
8632;SDS011;4354;49.832;10.746;2022-11-11T03:22:00;22.50;;;6.83;;
8632;SDS011;4354;49.832;10.746;2022-11-11T03:24:48;19.30;;;6.47;;
8632;SDS011;4354;49.832;10.746;2022-11-11T03:27:33;32.47;;;6.87;;
8632;SDS011;4354;49.832;10.746;2022-11-11T03:30:00;29.40;;;6.97;;
8632;SDS011;4354;49.832;10.746;2022-11-11T03:32:27;11.57;;;5.63;;
8632;SDS011;4354;49.832;10.746;2022-11-11T03:34:53;10.73;;;6.47;;
8632;SDS011;4354;49.832;10.746;2022-11-11T03:37:20;9.43;;;5.80;;
8632;SDS011;4354;49.832;10.746;2022-11-11T03:40:06;10.73;;;6.13;;
8632;SDS011;4354;49.832;10.746;2022-11-11T03:42:33;8.33;;;5.63;;
8632;SDS011;4354;49.832;10.746;2022-11-11T03:45:00;11.10;;;5.57;;
8632;SDS011;4354;49.832;10.746;2022-11-11T03:47:27;6.73;;;5.50;;
8632;SDS011;4354;49.832;10.746;2022-11-11T03:49:53;10.60;;;6.03;;
8632;SDS011;4354;49.832;10.746;2022-11-11T03:52:20;11.17;;;6.37;;
8632;SDS011;4354;49.832;10.746;2022-11-11T03:54:47;11.33;;;5.70;;
8632;SDS011;4354;49.832;10.746;2022-11-11T03:57:14;14.00;;;6.07;;
8632;SDS011;4354;49.832;10.746;2022-11-11T03:59:55;8.33;;;5.40;;
8632;SDS011;4354;49.832;10.746;2022-11-11T04:02:22;12.53;;;5.33;;
8632;SDS011;4354;49.832;10.746;2022-11-11T04:05:07;10.17;;;5.73;;
8632;SDS011;4354;49.832;10.746;2022-11-11T04:07:53;20.93;;;5.80;;
8632;SDS011;4354;49.832;10.746;2022-11-11T04:10:38;12.93;;;5.57;;
8632;SDS011;4354;49.832;10.746;2022-11-11T04:13:05;6.07;;;5.37;;
8632;SDS011;4354;49.832;10.746;2022-11-11T04:15:51;10.60;;;6.40;;
8632;SDS011;4354;49.832;10.746;2022-11-11T04:18:34;7.70;;;6.00;;
8632;SDS011;4354;49.832;10.746;2022-11-11T04:21:20;10.13;;;5.60;;
8632;SDS011;4354;49.832;10.746;2022-11-11T04:24:07;9.07;;;5.47;;
8632;SDS011;4354;49.832;10.746;2022-11-11T04:26:59;9.03;;;5.30;;
8632;SDS011;4354;49.832;10.746;2022-11-11T04:29:28;7.90;;;5.03;;
8632;SDS011;4354;49.832;10.746;2022-11-11T04:31:59;6.97;;;5.23;;
8632;SDS011;4354;49.832;10.746;2022-11-11T04:34:46;11.83;;;6.43;;
8632;SDS011;4354;49.832;10.746;2022-11-11T04:37:15;7.13;;;6.07;;
8632;SDS011;4354;49.832;10.746;2022-11-11T04:39:42;9.17;;;5.90;;
8632;SDS011;4354;49.832;10.746;2022-11-11T04:42:28;6.00;;;5.40;;
8632;SDS011;4354;49.832;10.746;2022-11-11T04:44:56;7.33;;;5.57;;
8632;SDS011;4354;49.832;10.746;2022-11-11T04:47:52;12.80;;;5.37;;
8632;SDS011;4354;49.832;10.746;2022-11-11T04:50:37;9.00;;;5.03;;
8632;SDS011;4354;49.832;10.746;2022-11-11T04:53:06;12.70;;;5.47;;
8632;SDS011;4354;49.832;10.746;2022-11-11T04:55:36;14.37;;;6.00;;
8632;SDS011;4354;49.832;10.746;2022-11-11T04:58:23;5.50;;;5.00;;
8632;SDS011;4354;49.832;10.746;2022-11-11T05:00:51;13.07;;;6.97;;
8632;SDS011;4354;49.832;10.746;2022-11-11T05:03:18;17.53;;;7.17;;
8632;SDS011;4354;49.832;10.746;2022-11-11T05:08:34;15.00;;;6.33;;
8632;SDS011;4354;49.832;10.746;2022-11-11T05:11:28;17.17;;;6.37;;
8632;SDS011;4354;49.832;10.746;2022-11-11T05:13:58;7.80;;;6.00;;
8632;SDS011;4354;49.832;10.746;2022-11-11T05:16:57;10.07;;;5.97;;
8632;SDS011;4354;49.832;10.746;2022-11-11T05:19:43;9.37;;;4.90;;
8632;SDS011;4354;49.832;10.746;2022-11-11T05:24:59;15.90;;;4.80;;
8632;SDS011;4354;49.832;10.746;2022-11-11T05:27:47;30.27;;;5.97;;
8632;SDS011;4354;49.832;10.746;2022-11-11T05:30:14;28.00;;;6.37;;
8632;SDS011;4354;49.832;10.746;2022-11-11T05:32:42;17.87;;;6.40;;
8632;SDS011;4354;49.832;10.746;2022-11-11T05:35:09;8.83;;;5.03;;
8632;SDS011;4354;49.832;10.746;2022-11-11T05:37:40;9.03;;;5.33;;
8632;SDS011;4354;49.832;10.746;2022-11-11T05:40:08;26.10;;;6.93;;
8632;SDS011;4354;49.832;10.746;2022-11-11T05:42:39;8.17;;;5.67;;
8632;SDS011;4354;49.832;10.746;2022-11-11T05:45:18;22.13;;;6.93;;
8632;SDS011;4354;49.832;10.746;2022-11-11T05:47:45;27.57;;;7.50;;
8632;SDS011;4354;49.832;10.746;2022-11-11T05:50:12;7.70;;;6.20;;
8632;SDS011;4354;49.832;10.746;2022-11-11T05:52:39;22.97;;;7.70;;
8632;SDS011;4354;49.832;10.746;2022-11-11T05:55:11;19.67;;;7.27;;
8632;SDS011;4354;49.832;10.746;2022-11-11T05:57:38;9.93;;;5.90;;
8632;SDS011;4354;49.832;10.746;2022-11-11T06:00:05;17.50;;;6.43;;
8632;SDS011;4354;49.832;10.746;2022-11-11T06:02:32;18.10;;;7.70;;
8632;SDS011;4354;49.832;10.746;2022-11-11T06:04:59;12.93;;;7.00;;
8632;SDS011;4354;49.832;10.746;2022-11-11T06:07:29;13.33;;;7.47;;
8632;SDS011;4354;49.832;10.746;2022-11-11T06:09:56;15.17;;;9.43;;
8632;SDS011;4354;49.832;10.746;2022-11-11T06:12:43;19.17;;;8.40;;
8632;SDS011;4354;49.832;10.746;2022-11-11T06:15:31;17.53;;;8.53;;
8632;SDS011;4354;49.832;10.746;2022-11-11T06:17:58;11.77;;;6.30;;
8632;SDS011;4354;49.832;10.746;2022-11-11T06:20:25;13.87;;;6.13;;
8632;SDS011;4354;49.832;10.746;2022-11-11T06:22:52;7.37;;;4.93;;
8632;SDS011;4354;49.832;10.746;2022-11-11T06:25:25;15.10;;;6.37;;
8632;SDS011;4354;49.832;10.746;2022-11-11T06:28:12;14.97;;;7.00;;
8632;SDS011;4354;49.832;10.746;2022-11-11T06:30:39;15.17;;;6.40;;
8632;SDS011;4354;49.832;10.746;2022-11-11T06:33:16;14.40;;;6.50;;
8632;SDS011;4354;49.832;10.746;2022-11-11T06:35:44;7.20;;;6.00;;
8632;SDS011;4354;49.832;10.746;2022-11-11T06:38:11;7.33;;;6.40;;
8632;SDS011;4354;49.832;10.746;2022-11-11T06:40:38;11.67;;;6.80;;
8632;SDS011;4354;49.832;10.746;2022-11-11T06:43:05;10.10;;;8.90;;
8632;SDS011;4354;49.832;10.746;2022-11-11T06:45:31;7.57;;;6.80;;
8632;SDS011;4354;49.832;10.746;2022-11-11T06:48:03;8.00;;;6.97;;
8632;SDS011;4354;49.832;10.746;2022-11-11T06:50:31;12.97;;;7.80;;
8632;SDS011;4354;49.832;10.746;2022-11-11T06:53:03;10.87;;;8.10;;
8632;SDS011;4354;49.832;10.746;2022-11-11T06:55:31;6.47;;;5.77;;
8632;SDS011;4354;49.832;10.746;2022-11-11T06:58:05;6.83;;;5.13;;
8632;SDS011;4354;49.832;10.746;2022-11-11T07:00:33;7.80;;;5.20;;
8632;SDS011;4354;49.832;10.746;2022-11-11T07:03:02;7.00;;;6.00;;
8632;SDS011;4354;49.832;10.746;2022-11-11T07:05:29;7.67;;;5.73;;
8632;SDS011;4354;49.832;10.746;2022-11-11T07:07:56;20.97;;;6.67;;
8632;SDS011;4354;49.832;10.746;2022-11-11T07:10:26;11.20;;;5.60;;
8632;SDS011;4354;49.832;10.746;2022-11-11T07:12:53;6.73;;;5.17;;
8632;SDS011;4354;49.832;10.746;2022-11-11T07:15:19;17.97;;;5.63;;
8632;SDS011;4354;49.832;10.746;2022-11-11T07:17:46;10.17;;;5.13;;
8632;SDS011;4354;49.832;10.746;2022-11-11T07:20:13;18.43;;;6.07;;
8632;SDS011;4354;49.832;10.746;2022-11-11T07:22:40;6.37;;;5.30;;
8632;SDS011;4354;49.832;10.746;2022-11-11T07:25:07;7.90;;;6.73;;
8632;SDS011;4354;49.832;10.746;2022-11-11T07:27:37;7.47;;;6.40;;
8632;SDS011;4354;49.832;10.746;2022-11-11T07:30:07;7.00;;;6.10;;
8632;SDS011;4354;49.832;10.746;2022-11-11T07:32:35;6.67;;;6.07;;
8632;SDS011;4354;49.832;10.746;2022-11-11T07:35:03;4.67;;;4.27;;
8632;SDS011;4354;49.832;10.746;2022-11-11T07:37:30;3.77;;;3.47;;
8632;SDS011;4354;49.832;10.746;2022-11-11T07:39:57;3.30;;;3.00;;
8632;SDS011;4354;49.832;10.746;2022-11-11T07:42:23;2.97;;;2.67;;
8632;SDS011;4354;49.832;10.746;2022-11-11T07:44:57;2.70;;;2.50;;
8632;SDS011;4354;49.832;10.746;2022-11-11T07:47:24;2.87;;;2.57;;
8632;SDS011;4354;49.832;10.746;2022-11-11T07:49:50;4.00;;;2.97;;
8632;SDS011;4354;49.832;10.746;2022-11-11T07:52:17;2.83;;;2.63;;
8632;SDS011;4354;49.832;10.746;2022-11-11T07:54:44;3.20;;;2.90;;
8632;SDS011;4354;49.832;10.746;2022-11-11T07:57:10;3.10;;;2.80;;
8632;SDS011;4354;49.832;10.746;2022-11-11T07:59:37;2.40;;;2.20;;
8632;SDS011;4354;49.832;10.746;2022-11-11T08:02:04;2.47;;;2.00;;
8632;SDS011;4354;49.832;10.746;2022-11-11T08:04:31;5.57;;;2.17;;
8632;SDS011;4354;49.832;10.746;2022-11-11T08:07:01;1.90;;;1.80;;
8632;SDS011;4354;49.832;10.746;2022-11-11T08:09:27;2.50;;;1.80;;
8632;SDS011;4354;49.832;10.746;2022-11-11T08:11:54;2.30;;;2.10;;
8632;SDS011;4354;49.832;10.746;2022-11-11T08:14:47;2.30;;;2.10;;
8632;SDS011;4354;49.832;10.746;2022-11-11T08:17:14;2.63;;;2.10;;
8632;SDS011;4354;49.832;10.746;2022-11-11T08:19:40;5.10;;;2.30;;
8632;SDS011;4354;49.832;10.746;2022-11-11T08:22:07;2.70;;;2.50;;
8632;SDS011;4354;49.832;10.746;2022-11-11T08:24:34;2.77;;;2.57;;
8632;SDS011;4354;49.832;10.746;2022-11-11T08:27:20;2.70;;;2.50;;
8632;SDS011;4354;49.832;10.746;2022-11-11T08:29:47;2.80;;;2.60;;
8632;SDS011;4354;49.832;10.746;2022-11-11T08:32:14;3.10;;;2.83;;
8632;SDS011;4354;49.832;10.746;2022-11-11T08:34:41;2.97;;;2.70;;
8632;SDS011;4354;49.832;10.746;2022-11-11T08:37:07;6.17;;;5.60;;
8632;SDS011;4354;49.832;10.746;2022-11-11T08:39:34;10.23;;;8.48;;
8632;SDS011;4354;49.832;10.746;2022-11-11T08:42:01;7.50;;;6.13;;
8632;SDS011;4354;49.832;10.746;2022-11-11T08:44:27;5.20;;;4.63;;
8632;SDS011;4354;49.832;10.746;2022-11-11T08:46:54;6.07;;;4.72;;
8632;SDS011;4354;49.832;10.746;2022-11-11T08:49:21;6.00;;;5.10;;
8632;SDS011;4354;49.832;10.746;2022-11-11T08:51:50;4.72;;;4.32;;
8632;SDS011;4354;49.832;10.746;2022-11-11T08:54:17;4.40;;;4.00;;
8632;SDS011;4354;49.832;10.746;2022-11-11T08:56:44;4.30;;;3.90;;
8632;SDS011;4354;49.832;10.746;2022-11-11T08:59:11;4.85;;;4.13;;
8632;SDS011;4354;49.832;10.746;2022-11-11T09:01:37;4.45;;;3.97;;
8632;SDS011;4354;49.832;10.746;2022-11-11T09:04:04;4.97;;;4.25;;
8632;SDS011;4354;49.832;10.746;2022-11-11T09:06:51;7.85;;;4.25;;
8632;SDS011;4354;49.832;10.746;2022-11-11T09:09:18;6.25;;;4.70;;
8632;SDS011;4354;49.832;10.746;2022-11-11T09:11:44;7.43;;;5.32;;
8632;SDS011;4354;49.832;10.746;2022-11-11T09:14:11;8.27;;;4.95;;
8632;SDS011;4354;49.832;10.746;2022-11-11T09:16:38;5.88;;;4.78;;
8632;SDS011;4354;49.832;10.746;2022-11-11T09:19:05;7.78;;;4.82;;
8632;SDS011;4354;49.832;10.746;2022-11-11T09:21:31;5.95;;;4.75;;
8632;SDS011;4354;49.832;10.746;2022-11-11T09:23:58;6.53;;;5.13;;
8632;SDS011;4354;49.832;10.746;2022-11-11T09:26:25;4.95;;;4.55;;
8632;SDS011;4354;49.832;10.746;2022-11-11T09:28:52;5.13;;;4.50;;
8632;SDS011;4354;49.832;10.746;2022-11-11T09:31:19;5.43;;;4.88;;
8632;SDS011;4354;49.832;10.746;2022-11-11T09:34:05;5.65;;;4.65;;
8632;SDS011;4354;49.832;10.746;2022-11-11T09:36:32;6.05;;;5.03;;
8632;SDS011;4354;49.832;10.746;2022-11-11T09:38:59;5.88;;;4.63;;
8632;SDS011;4354;49.832;10.746;2022-11-11T09:44:25;6.30;;;4.43;;
8632;SDS011;4354;49.832;10.746;2022-11-11T09:47:19;5.25;;;4.43;;
8632;SDS011;4354;49.832;10.746;2022-11-11T09:50:02;4.80;;;4.28;;
8632;SDS011;4354;49.832;10.746;2022-11-11T09:57:56;6.03;;;4.20;;
8632;SDS011;4354;49.832;10.746;2022-11-11T10:00:25;4.80;;;4.38;;
8632;SDS011;4354;49.832;10.746;2022-11-11T10:03:14;5.03;;;4.63;;
8632;SDS011;4354;49.832;10.746;2022-11-11T10:08:19;4.97;;;4.50;;
8632;SDS011;4354;49.832;10.746;2022-11-11T10:10:50;5.35;;;4.85;;
8632;SDS011;4354;49.832;10.746;2022-11-11T10:13:23;5.25;;;4.72;;
8632;SDS011;4354;49.832;10.746;2022-11-11T10:20:53;6.32;;;4.95;;
8632;SDS011;4354;49.832;10.746;2022-11-11T10:23:55;6.22;;;5.05;;
8632;SDS011;4354;49.832;10.746;2022-11-11T10:26:18;5.57;;;4.90;;
8632;SDS011;4354;49.832;10.746;2022-11-11T10:28:49;6.40;;;4.82;;
8632;SDS011;4354;49.832;10.746;2022-11-11T10:31:17;5.55;;;4.95;;
8632;SDS011;4354;49.832;10.746;2022-11-11T10:36:16;5.78;;;5.00;;
8632;SDS011;4354;49.832;10.746;2022-11-11T10:38:49;9.57;;;5.43;;
8632;SDS011;4354;49.832;10.746;2022-11-11T10:43:44;6.00;;;4.90;;
8632;SDS011;4354;49.832;10.746;2022-11-11T10:46:15;9.65;;;8.20;;
8632;SDS011;4354;49.832;10.746;2022-11-11T10:51:22;6.55;;;5.38;;
8632;SDS011;4354;49.832;10.746;2022-11-11T10:53:56;5.85;;;5.25;;
8632;SDS011;4354;49.832;10.746;2022-11-11T10:58:55;8.98;;;5.75;;
8632;SDS011;4354;49.832;10.746;2022-11-11T11:01:27;8.15;;;6.13;;
8632;SDS011;4354;49.832;10.746;2022-11-11T11:03:57;8.20;;;6.60;;
8632;SDS011;4354;49.832;10.746;2022-11-11T11:08:59;11.32;;;7.10;;
8632;SDS011;4354;49.832;10.746;2022-11-11T11:11:40;10.38;;;8.68;;
8632;SDS011;4354;49.832;10.746;2022-11-11T11:14:47;7.65;;;5.93;;
8632;SDS011;4354;49.832;10.746;2022-11-11T11:17:33;7.50;;;6.07;;
8632;SDS011;4354;49.832;10.746;2022-11-11T11:22:44;9.18;;;6.60;;
8632;SDS011;4354;49.832;10.746;2022-11-11T11:25:15;7.95;;;6.63;;
8632;SDS011;4354;49.832;10.746;2022-11-11T11:27:43;6.57;;;5.78;;
8632;SDS011;4354;49.832;10.746;2022-11-11T11:32:57;9.30;;;6.63;;
8632;SDS011;4354;49.832;10.746;2022-11-11T11:35:38;7.00;;;5.88;;
8632;SDS011;4354;49.832;10.746;2022-11-11T11:38:11;7.07;;;6.38;;
8632;SDS011;4354;49.832;10.746;2022-11-11T11:43:24;10.15;;;6.97;;
8632;SDS011;4354;49.832;10.746;2022-11-11T11:46:00;15.10;;;10.40;;
8632;SDS011;4354;49.832;10.746;2022-11-11T11:56:59;11.65;;;8.07;;
8632;SDS011;4354;49.832;10.746;2022-11-11T11:59:42;7.78;;;7.00;;
8632;SDS011;4354;49.832;10.746;2022-11-11T12:02:40;8.02;;;7.15;;
8632;SDS011;4354;49.832;10.746;2022-11-11T12:05:17;8.93;;;6.72;;
8632;SDS011;4354;49.832;10.746;2022-11-11T12:11:08;10.02;;;7.47;;
8632;SDS011;4354;49.832;10.746;2022-11-11T12:16:43;9.50;;;6.50;;
8632;SDS011;4354;49.832;10.746;2022-11-11T12:24:54;8.57;;;6.32;;
8632;SDS011;4354;49.832;10.746;2022-11-11T12:27:27;7.60;;;6.57;;
8632;SDS011;4354;49.832;10.746;2022-11-11T12:30:19;8.23;;;6.80;;
8632;SDS011;4354;49.832;10.746;2022-11-11T12:33:16;10.00;;;7.18;;
8632;SDS011;4354;49.832;10.746;2022-11-11T12:35:56;9.43;;;6.65;;
8632;SDS011;4354;49.832;10.746;2022-11-11T12:38:48;7.47;;;6.15;;
8632;SDS011;4354;49.832;10.746;2022-11-11T12:52:16;8.35;;;7.05;;
8632;SDS011;4354;49.832;10.746;2022-11-11T13:00:25;10.40;;;7.95;;
8632;SDS011;4354;49.832;10.746;2022-11-11T13:05:26;8.98;;;6.55;;
8632;SDS011;4354;49.832;10.746;2022-11-11T13:08:35;10.43;;;7.03;;
8632;SDS011;4354;49.832;10.746;2022-11-11T13:13:41;10.02;;;7.25;;
8632;SDS011;4354;49.832;10.746;2022-11-11T13:16:21;10.15;;;7.47;;
8632;SDS011;4354;49.832;10.746;2022-11-11T13:21:22;10.40;;;7.95;;
8632;SDS011;4354;49.832;10.746;2022-11-11T13:23:55;7.90;;;7.05;;
8632;SDS011;4354;49.832;10.746;2022-11-11T13:32:17;10.55;;;9.27;;
8632;SDS011;4354;49.832;10.746;2022-11-11T13:34:49;9.85;;;8.85;;
8632;SDS011;4354;49.832;10.746;2022-11-11T13:37:25;11.35;;;8.35;;
8632;SDS011;4354;49.832;10.746;2022-11-11T13:40:04;9.20;;;7.90;;
8632;SDS011;4354;49.832;10.746;2022-11-11T13:42:35;9.07;;;7.85;;
8632;SDS011;4354;49.832;10.746;2022-11-11T13:45:18;10.15;;;8.57;;
8632;SDS011;4354;49.832;10.746;2022-11-11T13:47:55;10.77;;;8.45;;
8632;SDS011;4354;49.832;10.746;2022-11-11T13:50:36;12.18;;;9.50;;
8632;SDS011;4354;49.832;10.746;2022-11-11T13:53:05;16.77;;;12.25;;
8632;SDS011;4354;49.832;10.746;2022-11-11T13:55:44;16.13;;;13.23;;
8632;SDS011;4354;49.832;10.746;2022-11-11T13:58:46;13.63;;;11.05;;
8632;SDS011;4354;49.832;10.746;2022-11-11T14:01:07;10.55;;;9.48;;
8632;SDS011;4354;49.832;10.746;2022-11-11T14:03:56;8.10;;;7.30;;
8632;SDS011;4354;49.832;10.746;2022-11-11T14:06:28;8.55;;;7.43;;
8632;SDS011;4354;49.832;10.746;2022-11-11T14:09:01;7.63;;;6.65;;
8632;SDS011;4354;49.832;10.746;2022-11-11T14:11:30;8.37;;;7.57;;
8632;SDS011;4354;49.832;10.746;2022-11-11T14:17:10;8.88;;;7.20;;
8632;SDS011;4354;49.832;10.746;2022-11-11T14:19:39;12.07;;;8.87;;
8632;SDS011;4354;49.832;10.746;2022-11-11T14:25:08;9.07;;;7.63;;
8632;SDS011;4354;49.832;10.746;2022-11-11T14:27:51;11.53;;;8.07;;
8632;SDS011;4354;49.832;10.746;2022-11-11T14:30:28;7.97;;;7.10;;
8632;SDS011;4354;49.832;10.746;2022-11-11T14:33:07;11.47;;;8.60;;
8632;SDS011;4354;49.832;10.746;2022-11-11T14:36:05;10.37;;;7.50;;
8632;SDS011;4354;49.832;10.746;2022-11-11T14:38:43;10.53;;;7.30;;
8632;SDS011;4354;49.832;10.746;2022-11-11T14:49:54;9.80;;;7.43;;
8632;SDS011;4354;49.832;10.746;2022-11-11T14:57:33;12.03;;;8.60;;
8632;SDS011;4354;49.832;10.746;2022-11-11T15:00:17;8.80;;;7.67;;
8632;SDS011;4354;49.832;10.746;2022-11-11T15:02:49;8.87;;;7.90;;
8632;SDS011;4354;49.832;10.746;2022-11-11T15:05:24;11.20;;;7.60;;
8632;SDS011;4354;49.832;10.746;2022-11-11T15:13:32;9.10;;;7.53;;
8632;SDS011;4354;49.832;10.746;2022-11-11T15:19:01;8.57;;;6.83;;
8632;SDS011;4354;49.832;10.746;2022-11-11T15:21:38;7.30;;;6.57;;
8632;SDS011;4354;49.832;10.746;2022-11-11T15:24:34;9.67;;;7.90;;
8632;SDS011;4354;49.832;10.746;2022-11-11T15:27:25;9.93;;;7.33;;
8632;SDS011;4354;49.832;10.746;2022-11-11T15:30:08;9.10;;;7.87;;
8632;SDS011;4354;49.832;10.746;2022-11-11T15:33:33;8.30;;;6.87;;
8632;SDS011;4354;49.832;10.746;2022-11-11T15:35:41;10.93;;;7.97;;
8632;SDS011;4354;49.832;10.746;2022-11-11T15:38:36;9.83;;;7.57;;
8632;SDS011;4354;49.832;10.746;2022-11-11T15:41:04;9.30;;;8.00;;
8632;SDS011;4354;49.832;10.746;2022-11-11T15:43:31;9.27;;;8.30;;
8632;SDS011;4354;49.832;10.746;2022-11-11T15:46:01;10.97;;;8.37;;
8632;SDS011;4354;49.832;10.746;2022-11-11T15:48:31;9.80;;;8.53;;
8632;SDS011;4354;49.832;10.746;2022-11-11T15:51:16;10.83;;;8.20;;
8632;SDS011;4354;49.832;10.746;2022-11-11T15:53:47;10.50;;;8.60;;
8632;SDS011;4354;49.832;10.746;2022-11-11T15:56:27;10.23;;;8.60;;
8632;SDS011;4354;49.832;10.746;2022-11-11T15:58:54;13.03;;;9.87;;
8632;SDS011;4354;49.832;10.746;2022-11-11T16:01:24;16.10;;;10.10;;
8632;SDS011;4354;49.832;10.746;2022-11-11T16:03:53;13.47;;;9.80;;
8632;SDS011;4354;49.832;10.746;2022-11-11T16:06:21;10.93;;;9.30;;
8632;SDS011;4354;49.832;10.746;2022-11-11T16:08:49;9.43;;;8.43;;
8632;SDS011;4354;49.832;10.746;2022-11-11T16:11:18;10.67;;;8.70;;
8632;SDS011;4354;49.832;10.746;2022-11-11T16:13:47;13.67;;;9.03;;
8632;SDS011;4354;49.832;10.746;2022-11-11T16:16:38;13.47;;;9.77;;
8632;SDS011;4354;49.832;10.746;2022-11-11T16:21:57;16.13;;;12.97;;
8632;SDS011;4354;49.832;10.746;2022-11-11T16:24:38;16.97;;;13.43;;
8632;SDS011;4354;49.832;10.746;2022-11-11T16:27:06;14.77;;;12.37;;
8632;SDS011;4354;49.832;10.746;2022-11-11T16:29:36;15.90;;;11.80;;
8632;SDS011;4354;49.832;10.746;2022-11-11T16:34:51;17.90;;;12.17;;
8632;SDS011;4354;49.832;10.746;2022-11-11T16:37:19;16.40;;;12.00;;
8632;SDS011;4354;49.832;10.746;2022-11-11T16:39:47;17.87;;;12.93;;
8632;SDS011;4354;49.832;10.746;2022-11-11T16:42:23;18.00;;;14.40;;
8632;SDS011;4354;49.832;10.746;2022-11-11T16:44:59;20.03;;;15.90;;
8632;SDS011;4354;49.832;10.746;2022-11-11T16:55:32;22.63;;;16.40;;
8632;SDS011;4354;49.832;10.746;2022-11-11T16:58:15;25.80;;;18.77;;
8632;SDS011;4354;49.832;10.746;2022-11-11T17:00:45;29.97;;;20.33;;
8632;SDS011;4354;49.832;10.746;2022-11-11T17:03:14;30.53;;;22.73;;
8632;SDS011;4354;49.832;10.746;2022-11-11T17:05:55;39.97;;;28.97;;
8632;SDS011;4354;49.832;10.746;2022-11-11T17:10:54;41.63;;;29.03;;
8632;SDS011;4354;49.832;10.746;2022-11-11T17:13:20;44.97;;;29.50;;
8632;SDS011;4354;49.832;10.746;2022-11-11T17:15:49;36.90;;;26.93;;
8632;SDS011;4354;49.832;10.746;2022-11-11T17:18:17;36.27;;;26.17;;
8632;SDS011;4354;49.832;10.746;2022-11-11T17:20:44;36.83;;;26.13;;
8632;SDS011;4354;49.832;10.746;2022-11-11T17:23:11;38.53;;;26.03;;
8632;SDS011;4354;49.832;10.746;2022-11-11T17:25:38;32.57;;;24.23;;
8632;SDS011;4354;49.832;10.746;2022-11-11T17:28:05;35.93;;;25.33;;
8632;SDS011;4354;49.832;10.746;2022-11-11T17:30:32;31.43;;;21.53;;
8632;SDS011;4354;49.832;10.746;2022-11-11T17:32:58;32.80;;;20.90;;
8632;SDS011;4354;49.832;10.746;2022-11-11T17:35:25;32.60;;;21.23;;
8632;SDS011;4354;49.832;10.746;2022-11-11T17:37:52;25.20;;;18.60;;
8632;SDS011;4354;49.832;10.746;2022-11-11T17:40:18;24.50;;;17.17;;
8632;SDS011;4354;49.832;10.746;2022-11-11T17:42:45;25.27;;;18.93;;
8632;SDS011;4354;49.832;10.746;2022-11-11T17:45:12;25.93;;;19.80;;
8632;SDS011;4354;49.832;10.746;2022-11-11T17:47:38;29.83;;;22.87;;
8632;SDS011;4354;49.832;10.746;2022-11-11T17:50:09;33.43;;;24.57;;